<?xml version="1.0" encoding="UTF-8"?>
<gpx creator="Wikiloc - https://www.wikiloc.com" version="1.1" xmlns="http://www.topografix.com/GPX/1/1" xmlns:xsi="http://www.w3.org/2001/XMLSchema-instance" xsi:schemaLocation="http://www.topografix.com/GPX/1/1 http://www.topografix.com/GPX/1/1/gpx.xsd">
  <metadata>
    <name>Wikiloc - Senda de Ursi (Montaña Palentina)</name>
    <link href="https://www.wikiloc.com/hiking-trails/senda-de-ursi-montana-palentina-7601728">
      <text>Senda de Ursi (Montaña Palentina) - Wikiloc on Wikiloc</text>
    </link>
    <time>2014-08-13T15:31:37Z</time>
  </metadata>
  <trk>
    <name>Senda de Ursi (Montaña Palentina) - Wikiloc</name>
    <cmt></cmt>
    <desc></desc>
    <trkseg>
      <trkpt lat="42.891078" lon="-4.310720">
        <ele>1081.263</ele>
        <time>2014-08-13T11:07:39Z</time>
      </trkpt>
      <trkpt lat="42.891382" lon="-4.311134">
        <ele>1084.844</ele>
        <time>2014-08-13T11:08:18Z</time>
      </trkpt>
      <trkpt lat="42.892110" lon="-4.311553">
        <ele>1093.018</ele>
        <time>2014-08-13T11:09:47Z</time>
      </trkpt>
      <trkpt lat="42.892213" lon="-4.310649">
        <ele>1094.907</ele>
        <time>2014-08-13T11:11:45Z</time>
      </trkpt>
      <trkpt lat="42.893791" lon="-4.310591">
        <ele>1119.513</ele>
        <time>2014-08-13T11:17:44Z</time>
      </trkpt>
      <trkpt lat="42.894032" lon="-4.310381">
        <ele>1124.812</ele>
        <time>2014-08-13T11:18:15Z</time>
      </trkpt>
      <trkpt lat="42.894480" lon="-4.309470">
        <ele>1132.536</ele>
        <time>2014-08-13T11:19:19Z</time>
      </trkpt>
      <trkpt lat="42.894997" lon="-4.309164">
        <ele>1137.997</ele>
        <time>2014-08-13T11:20:06Z</time>
      </trkpt>
      <trkpt lat="42.895539" lon="-4.309505">
        <ele>1146.063</ele>
        <time>2014-08-13T11:20:59Z</time>
      </trkpt>
      <trkpt lat="42.895892" lon="-4.310453">
        <ele>1155.698</ele>
        <time>2014-08-13T11:23:26Z</time>
      </trkpt>
      <trkpt lat="42.896967" lon="-4.312079">
        <ele>1176.084</ele>
        <time>2014-08-13T11:27:42Z</time>
      </trkpt>
      <trkpt lat="42.896908" lon="-4.312766">
        <ele>1174.079</ele>
        <time>2014-08-13T11:29:10Z</time>
      </trkpt>
      <trkpt lat="42.896445" lon="-4.313926">
        <ele>1162.905</ele>
        <time>2014-08-13T11:31:04Z</time>
      </trkpt>
      <trkpt lat="42.896702" lon="-4.314633">
        <ele>1158.925</ele>
        <time>2014-08-13T11:31:52Z</time>
      </trkpt>
      <trkpt lat="42.896971" lon="-4.315008">
        <ele>1157.307</ele>
        <time>2014-08-13T11:32:23Z</time>
      </trkpt>
      <trkpt lat="42.897672" lon="-4.315396">
        <ele>1165.224</ele>
        <time>2014-08-13T11:33:40Z</time>
      </trkpt>
      <trkpt lat="42.898241" lon="-4.316464">
        <ele>1176.883</ele>
        <time>2014-08-13T11:35:03Z</time>
      </trkpt>
      <trkpt lat="42.898436" lon="-4.317310">
        <ele>1178.357</ele>
        <time>2014-08-13T11:35:57Z</time>
      </trkpt>
      <trkpt lat="42.899041" lon="-4.317851">
        <ele>1188.838</ele>
        <time>2014-08-13T11:36:59Z</time>
      </trkpt>
      <trkpt lat="42.899422" lon="-4.318496">
        <ele>1193.954</ele>
        <time>2014-08-13T11:37:50Z</time>
      </trkpt>
      <trkpt lat="42.899386" lon="-4.318893">
        <ele>1192.289</ele>
        <time>2014-08-13T11:38:14Z</time>
      </trkpt>
      <trkpt lat="42.899567" lon="-4.319186">
        <ele>1194.665</ele>
        <time>2014-08-13T11:38:49Z</time>
      </trkpt>
      <trkpt lat="42.899470" lon="-4.319134">
        <ele>1192.388</ele>
        <time>2014-08-13T11:39:13Z</time>
      </trkpt>
      <trkpt lat="42.900151" lon="-4.319597">
        <ele>1199.124</ele>
        <time>2014-08-13T11:40:25Z</time>
      </trkpt>
      <trkpt lat="42.901059" lon="-4.321506">
        <ele>1196.926</ele>
        <time>2014-08-13T11:42:39Z</time>
      </trkpt>
      <trkpt lat="42.901524" lon="-4.321833">
        <ele>1198.107</ele>
        <time>2014-08-13T11:43:22Z</time>
      </trkpt>
      <trkpt lat="42.902003" lon="-4.323025">
        <ele>1192.255</ele>
        <time>2014-08-13T11:44:41Z</time>
      </trkpt>
      <trkpt lat="42.902657" lon="-4.323829">
        <ele>1196.554</ele>
        <time>2014-08-13T11:45:57Z</time>
      </trkpt>
      <trkpt lat="42.903049" lon="-4.325535">
        <ele>1199.948</ele>
        <time>2014-08-13T11:49:03Z</time>
      </trkpt>
      <trkpt lat="42.905025" lon="-4.327212">
        <ele>1230.089</ele>
        <time>2014-08-13T11:57:13Z</time>
      </trkpt>
      <trkpt lat="42.905134" lon="-4.327598">
        <ele>1235.725</ele>
        <time>2014-08-13T11:57:44Z</time>
      </trkpt>
      <trkpt lat="42.905046" lon="-4.327948">
        <ele>1232.940</ele>
        <time>2014-08-13T12:00:39Z</time>
      </trkpt>
      <trkpt lat="42.905129" lon="-4.327766">
        <ele>1237.126</ele>
        <time>2014-08-13T12:02:08Z</time>
      </trkpt>
      <trkpt lat="42.906037" lon="-4.330457">
        <ele>1258.634</ele>
        <time>2014-08-13T12:05:46Z</time>
      </trkpt>
      <trkpt lat="42.905875" lon="-4.330837">
        <ele>1248.855</ele>
        <time>2014-08-13T12:07:30Z</time>
      </trkpt>
      <trkpt lat="42.906058" lon="-4.330646">
        <ele>1256.010</ele>
        <time>2014-08-13T12:08:10Z</time>
      </trkpt>
      <trkpt lat="42.906554" lon="-4.330675">
        <ele>1261.107</ele>
        <time>2014-08-13T12:08:51Z</time>
      </trkpt>
      <trkpt lat="42.907040" lon="-4.331051">
        <ele>1254.940</ele>
        <time>2014-08-13T12:09:38Z</time>
      </trkpt>
      <trkpt lat="42.906990" lon="-4.333395">
        <ele>1257.549</ele>
        <time>2014-08-13T12:14:53Z</time>
      </trkpt>
      <trkpt lat="42.906527" lon="-4.334854">
        <ele>1240.073</ele>
        <time>2014-08-13T12:17:34Z</time>
      </trkpt>
      <trkpt lat="42.906567" lon="-4.335438">
        <ele>1241.664</ele>
        <time>2014-08-13T12:19:46Z</time>
      </trkpt>
      <trkpt lat="42.906009" lon="-4.336841">
        <ele>1238.560</ele>
        <time>2014-08-13T12:21:40Z</time>
      </trkpt>
      <trkpt lat="42.905992" lon="-4.336721">
        <ele>1239.015</ele>
        <time>2014-08-13T12:22:29Z</time>
      </trkpt>
      <trkpt lat="42.906278" lon="-4.337166">
        <ele>1239.131</ele>
        <time>2014-08-13T12:23:23Z</time>
      </trkpt>
      <trkpt lat="42.906116" lon="-4.337564">
        <ele>1241.339</ele>
        <time>2014-08-13T12:24:02Z</time>
      </trkpt>
      <trkpt lat="42.907038" lon="-4.337866">
        <ele>1255.401</ele>
        <time>2014-08-13T12:25:38Z</time>
      </trkpt>
      <trkpt lat="42.907847" lon="-4.337868">
        <ele>1260.721</ele>
        <time>2014-08-13T12:26:58Z</time>
      </trkpt>
      <trkpt lat="42.908192" lon="-4.338169">
        <ele>1270.007</ele>
        <time>2014-08-13T12:56:14Z</time>
      </trkpt>
      <trkpt lat="42.908099" lon="-4.338078">
        <ele>1267.290</ele>
        <time>2014-08-13T12:57:37Z</time>
      </trkpt>
      <trkpt lat="42.907985" lon="-4.338491">
        <ele>1268.649</ele>
        <time>2014-08-13T13:05:07Z</time>
      </trkpt>
      <trkpt lat="42.907491" lon="-4.338885">
        <ele>1263.833</ele>
        <time>2014-08-13T13:07:09Z</time>
      </trkpt>
      <trkpt lat="42.907366" lon="-4.339507">
        <ele>1265.394</ele>
        <time>2014-08-13T13:08:16Z</time>
      </trkpt>
      <trkpt lat="42.906925" lon="-4.340161">
        <ele>1269.950</ele>
        <time>2014-08-13T13:09:06Z</time>
      </trkpt>
      <trkpt lat="42.907360" lon="-4.340901">
        <ele>1266.665</ele>
        <time>2014-08-13T13:10:03Z</time>
      </trkpt>
      <trkpt lat="42.907490" lon="-4.341675">
        <ele>1264.741</ele>
        <time>2014-08-13T13:10:52Z</time>
      </trkpt>
      <trkpt lat="42.906970" lon="-4.342942">
        <ele>1265.529</ele>
        <time>2014-08-13T13:12:22Z</time>
      </trkpt>
      <trkpt lat="42.906238" lon="-4.343464">
        <ele>1269.800</ele>
        <time>2014-08-13T13:14:02Z</time>
      </trkpt>
      <trkpt lat="42.905508" lon="-4.343334">
        <ele>1260.220</ele>
        <time>2014-08-13T13:15:10Z</time>
      </trkpt>
      <trkpt lat="42.905260" lon="-4.343975">
        <ele>1260.707</ele>
        <time>2014-08-13T13:15:55Z</time>
      </trkpt>
      <trkpt lat="42.904930" lon="-4.344109">
        <ele>1255.529</ele>
        <time>2014-08-13T13:18:58Z</time>
      </trkpt>
      <trkpt lat="42.904858" lon="-4.344955">
        <ele>1251.438</ele>
        <time>2014-08-13T13:22:21Z</time>
      </trkpt>
      <trkpt lat="42.903794" lon="-4.346934">
        <ele>1243.012</ele>
        <time>2014-08-13T13:27:13Z</time>
      </trkpt>
      <trkpt lat="42.903587" lon="-4.347069">
        <ele>1243.553</ele>
        <time>2014-08-13T13:29:32Z</time>
      </trkpt>
      <trkpt lat="42.903518" lon="-4.346920">
        <ele>1243.319</ele>
        <time>2014-08-13T13:31:32Z</time>
      </trkpt>
      <trkpt lat="42.903402" lon="-4.347283">
        <ele>1244.844</ele>
        <time>2014-08-13T13:32:25Z</time>
      </trkpt>
      <trkpt lat="42.903099" lon="-4.347485">
        <ele>1247.580</ele>
        <time>2014-08-13T13:33:07Z</time>
      </trkpt>
      <trkpt lat="42.902919" lon="-4.347445">
        <ele>1250.026</ele>
        <time>2014-08-13T13:33:32Z</time>
      </trkpt>
      <trkpt lat="42.903072" lon="-4.347265">
        <ele>1247.847</ele>
        <time>2014-08-13T13:34:30Z</time>
      </trkpt>
      <trkpt lat="42.903059" lon="-4.347439">
        <ele>1248.011</ele>
        <time>2014-08-13T13:34:48Z</time>
      </trkpt>
      <trkpt lat="42.902875" lon="-4.347446">
        <ele>1250.607</ele>
        <time>2014-08-13T13:35:11Z</time>
      </trkpt>
      <trkpt lat="42.902281" lon="-4.346908">
        <ele>1256.559</ele>
        <time>2014-08-13T13:36:27Z</time>
      </trkpt>
      <trkpt lat="42.901578" lon="-4.346548">
        <ele>1263.388</ele>
        <time>2014-08-13T13:37:55Z</time>
      </trkpt>
      <trkpt lat="42.900740" lon="-4.345559">
        <ele>1268.442</ele>
        <time>2014-08-13T13:39:52Z</time>
      </trkpt>
      <trkpt lat="42.899534" lon="-4.342723">
        <ele>1292.273</ele>
        <time>2014-08-13T13:45:11Z</time>
      </trkpt>
      <trkpt lat="42.899421" lon="-4.341581">
        <ele>1297.799</ele>
        <time>2014-08-13T13:46:29Z</time>
      </trkpt>
      <trkpt lat="42.899157" lon="-4.340646">
        <ele>1305.824</ele>
        <time>2014-08-13T13:47:25Z</time>
      </trkpt>
      <trkpt lat="42.898424" lon="-4.339456">
        <ele>1322.980</ele>
        <time>2014-08-13T13:49:39Z</time>
      </trkpt>
      <trkpt lat="42.898100" lon="-4.339769">
        <ele>1327.577</ele>
        <time>2014-08-13T13:50:15Z</time>
      </trkpt>
      <trkpt lat="42.897424" lon="-4.339105">
        <ele>1324.861</ele>
        <time>2014-08-13T13:53:24Z</time>
      </trkpt>
      <trkpt lat="42.896744" lon="-4.337993">
        <ele>1327.527</ele>
        <time>2014-08-13T13:54:47Z</time>
      </trkpt>
      <trkpt lat="42.896082" lon="-4.336186">
        <ele>1342.107</ele>
        <time>2014-08-13T13:57:05Z</time>
      </trkpt>
      <trkpt lat="42.895546" lon="-4.335246">
        <ele>1344.584</ele>
        <time>2014-08-13T13:58:33Z</time>
      </trkpt>
      <trkpt lat="42.894690" lon="-4.334496">
        <ele>1359.973</ele>
        <time>2014-08-13T14:00:07Z</time>
      </trkpt>
      <trkpt lat="42.894438" lon="-4.332957">
        <ele>1373.647</ele>
        <time>2014-08-13T14:01:41Z</time>
      </trkpt>
      <trkpt lat="42.894634" lon="-4.332849">
        <ele>1378.278</ele>
        <time>2014-08-13T14:02:42Z</time>
      </trkpt>
      <trkpt lat="42.894757" lon="-4.332947">
        <ele>1376.744</ele>
        <time>2014-08-13T14:02:58Z</time>
      </trkpt>
      <trkpt lat="42.894815" lon="-4.332823">
        <ele>1371.519</ele>
        <time>2014-08-13T14:03:12Z</time>
      </trkpt>
      <trkpt lat="42.894762" lon="-4.332973">
        <ele>1376.265</ele>
        <time>2014-08-13T14:13:28Z</time>
      </trkpt>
      <trkpt lat="42.894446" lon="-4.332902">
        <ele>1374.148</ele>
        <time>2014-08-13T14:13:54Z</time>
      </trkpt>
      <trkpt lat="42.894377" lon="-4.333676">
        <ele>1361.961</ele>
        <time>2014-08-13T14:14:41Z</time>
      </trkpt>
      <trkpt lat="42.893424" lon="-4.332919">
        <ele>1351.317</ele>
        <time>2014-08-13T14:16:24Z</time>
      </trkpt>
      <trkpt lat="42.892573" lon="-4.332873">
        <ele>1339.607</ele>
        <time>2014-08-13T14:17:41Z</time>
      </trkpt>
      <trkpt lat="42.892339" lon="-4.333161">
        <ele>1332.691</ele>
        <time>2014-08-13T14:18:04Z</time>
      </trkpt>
      <trkpt lat="42.891670" lon="-4.333351">
        <ele>1323.790</ele>
        <time>2014-08-13T14:19:19Z</time>
      </trkpt>
      <trkpt lat="42.891455" lon="-4.334398">
        <ele>1306.914</ele>
        <time>2014-08-13T14:20:34Z</time>
      </trkpt>
      <trkpt lat="42.891235" lon="-4.334518">
        <ele>1303.125</ele>
        <time>2014-08-13T14:20:54Z</time>
      </trkpt>
      <trkpt lat="42.891001" lon="-4.334418">
        <ele>1300.251</ele>
        <time>2014-08-13T14:21:13Z</time>
      </trkpt>
      <trkpt lat="42.890261" lon="-4.333192">
        <ele>1289.186</ele>
        <time>2014-08-13T14:25:50Z</time>
      </trkpt>
      <trkpt lat="42.890143" lon="-4.333262">
        <ele>1285.232</ele>
        <time>2014-08-13T14:32:45Z</time>
      </trkpt>
      <trkpt lat="42.889426" lon="-4.331816">
        <ele>1271.269</ele>
        <time>2014-08-13T14:37:08Z</time>
      </trkpt>
      <trkpt lat="42.889170" lon="-4.330586">
        <ele>1266.204</ele>
        <time>2014-08-13T14:38:24Z</time>
      </trkpt>
      <trkpt lat="42.889701" lon="-4.327910">
        <ele>1244.424</ele>
        <time>2014-08-13T14:41:10Z</time>
      </trkpt>
      <trkpt lat="42.889550" lon="-4.326952">
        <ele>1229.607</ele>
        <time>2014-08-13T14:42:23Z</time>
      </trkpt>
      <trkpt lat="42.889120" lon="-4.325809">
        <ele>1220.363</ele>
        <time>2014-08-13T14:43:42Z</time>
      </trkpt>
      <trkpt lat="42.887240" lon="-4.325107">
        <ele>1201.812</ele>
        <time>2014-08-13T14:46:24Z</time>
      </trkpt>
      <trkpt lat="42.885895" lon="-4.323959">
        <ele>1182.436</ele>
        <time>2014-08-13T14:48:27Z</time>
      </trkpt>
      <trkpt lat="42.885242" lon="-4.324493">
        <ele>1172.927</ele>
        <time>2014-08-13T14:49:29Z</time>
      </trkpt>
      <trkpt lat="42.884867" lon="-4.325132">
        <ele>1168.893</ele>
        <time>2014-08-13T14:51:08Z</time>
      </trkpt>
      <trkpt lat="42.884404" lon="-4.325339">
        <ele>1165.188</ele>
        <time>2014-08-13T14:51:47Z</time>
      </trkpt>
      <trkpt lat="42.882956" lon="-4.325090">
        <ele>1147.974</ele>
        <time>2014-08-13T14:54:27Z</time>
      </trkpt>
      <trkpt lat="42.882223" lon="-4.324636">
        <ele>1140.664</ele>
        <time>2014-08-13T14:55:37Z</time>
      </trkpt>
      <trkpt lat="42.882115" lon="-4.324413">
        <ele>1139.406</ele>
        <time>2014-08-13T14:55:53Z</time>
      </trkpt>
      <trkpt lat="42.881920" lon="-4.322569">
        <ele>1120.616</ele>
        <time>2014-08-13T14:57:42Z</time>
      </trkpt>
      <trkpt lat="42.881650" lon="-4.322066">
        <ele>1112.207</ele>
        <time>2014-08-13T14:58:27Z</time>
      </trkpt>
      <trkpt lat="42.881591" lon="-4.320817">
        <ele>1098.823</ele>
        <time>2014-08-13T15:00:03Z</time>
      </trkpt>
      <trkpt lat="42.881344" lon="-4.320223">
        <ele>1091.242</ele>
        <time>2014-08-13T15:00:44Z</time>
      </trkpt>
      <trkpt lat="42.881262" lon="-4.318225">
        <ele>1080.736</ele>
        <time>2014-08-13T15:03:29Z</time>
      </trkpt>
      <trkpt lat="42.881821" lon="-4.317580">
        <ele>1078.497</ele>
        <time>2014-08-13T15:04:27Z</time>
      </trkpt>
      <trkpt lat="42.882953" lon="-4.317088">
        <ele>1073.633</ele>
        <time>2014-08-13T15:05:58Z</time>
      </trkpt>
      <trkpt lat="42.883651" lon="-4.316946">
        <ele>1074.358</ele>
        <time>2014-08-13T15:09:16Z</time>
      </trkpt>
      <trkpt lat="42.883934" lon="-4.315767">
        <ele>1073.424</ele>
        <time>2014-08-13T15:10:46Z</time>
      </trkpt>
      <trkpt lat="42.884715" lon="-4.315457">
        <ele>1070.497</ele>
        <time>2014-08-13T15:12:17Z</time>
      </trkpt>
      <trkpt lat="42.885399" lon="-4.314403">
        <ele>1072.223</ele>
        <time>2014-08-13T15:13:36Z</time>
      </trkpt>
      <trkpt lat="42.886554" lon="-4.313825">
        <ele>1075.225</ele>
        <time>2014-08-13T15:15:06Z</time>
      </trkpt>
      <trkpt lat="42.887134" lon="-4.313889">
        <ele>1072.607</ele>
        <time>2014-08-13T15:15:48Z</time>
      </trkpt>
      <trkpt lat="42.887761" lon="-4.313747">
        <ele>1071.066</ele>
        <time>2014-08-13T15:16:53Z</time>
      </trkpt>
      <trkpt lat="42.888833" lon="-4.314199">
        <ele>1074.195</ele>
        <time>2014-08-13T15:18:19Z</time>
      </trkpt>
      <trkpt lat="42.890074" lon="-4.315671">
        <ele>1074.439</ele>
        <time>2014-08-13T15:20:52Z</time>
      </trkpt>
      <trkpt lat="42.890714" lon="-4.315898">
        <ele>1071.590</ele>
        <time>2014-08-13T15:21:41Z</time>
      </trkpt>
      <trkpt lat="42.891007" lon="-4.315852">
        <ele>1067.566</ele>
        <time>2014-08-13T15:22:38Z</time>
      </trkpt>
      <trkpt lat="42.891659" lon="-4.316586">
        <ele>1064.151</ele>
        <time>2014-08-13T15:23:42Z</time>
      </trkpt>
      <trkpt lat="42.892180" lon="-4.316659">
        <ele>1062.897</ele>
        <time>2014-08-13T15:24:24Z</time>
      </trkpt>
      <trkpt lat="42.891901" lon="-4.312906">
        <ele>1087.235</ele>
        <time>2014-08-13T15:28:22Z</time>
      </trkpt>
      <trkpt lat="42.892250" lon="-4.312083">
        <ele>1092.486</ele>
        <time>2014-08-13T15:29:19Z</time>
      </trkpt>
      <trkpt lat="42.892034" lon="-4.311528">
        <ele>1091.614</ele>
        <time>2014-08-13T15:29:59Z</time>
      </trkpt>
      <trkpt lat="42.891350" lon="-4.311114">
        <ele>1084.407</ele>
        <time>2014-08-13T15:31:01Z</time>
      </trkpt>
      <trkpt lat="42.891057" lon="-4.310689">
        <ele>1080.880</ele>
        <time>2014-08-13T15:31:37Z</time>
      </trkpt>
    </trkseg>
  </trk></gpx>